createdAt,value
2018-08-22T02:50:00.707Z,0.0
2018-08-22T03:00:00.676Z,0.0
2018-08-22T03:06:00.496Z,0.1
2018-08-22T03:08:00.471Z,0.2
2018-08-22T03:09:00.466Z,0.3
2018-08-22T03:11:00.633Z,0.4
2018-08-22T03:12:00.472Z,0.5
2018-08-22T03:14:00.466Z,0.6
2018-08-22T03:15:05.471Z,0.7
2018-08-22T03:16:00.617Z,0.9
2018-08-22T03:17:00.469Z,1.0
2018-08-22T03:18:00.470Z,1.2
2018-08-22T03:19:00.470Z,1.4
2018-08-22T03:20:00.514Z,1.6
2018-08-22T03:21:00.626Z,1.8
2018-08-22T03:22:00.473Z,2.1
2018-08-22T03:23:00.468Z,2.3
2018-08-22T03:24:00.467Z,2.7
2018-08-22T03:25:05.469Z,3.1
2018-08-22T03:26:00.718Z,3.5
2018-08-22T03:27:00.467Z,4.1
2018-08-22T03:28:00.468Z,4.8
2018-08-22T03:29:00.534Z,5.6
2018-08-22T03:30:05.475Z,6.5
2018-08-22T03:31:00.614Z,7.5
2018-08-22T03:32:00.472Z,8.8
2018-08-22T03:33:00.468Z,10.2
2018-08-22T03:34:00.600Z,11.9
2018-08-22T03:35:05.470Z,13.9
2018-08-22T03:36:00.608Z,16.2
2018-08-22T03:37:00.442Z,18.9
2018-08-22T03:38:00.468Z,22.1
2018-08-22T03:39:00.476Z,25.8
2018-08-22T03:40:05.473Z,30.2
2018-08-22T03:41:00.606Z,35.3
2018-08-22T03:42:00.539Z,41.3
2018-08-22T03:43:00.471Z,48.3
2018-08-22T03:44:00.468Z,56.4
2018-08-22T03:45:05.470Z,65.9
2018-08-22T03:46:00.722Z,76.9
2018-08-22T03:47:00.478Z,89.7
2018-08-22T03:48:00.467Z,104.4
2018-08-22T03:49:00.503Z,121.3
2018-08-22T03:50:00.471Z,140.7
2018-08-22T03:51:00.609Z,162.8
2018-08-22T03:52:00.471Z,187.9
2018-08-22T03:53:00.534Z,216.4
2018-08-22T03:54:00.514Z,248.6
2018-08-22T03:55:00.538Z,284.8
2018-08-22T03:56:00.611Z,325.5
2018-08-22T03:57:00.474Z,370.9
2018-08-22T03:58:00.469Z,421.5
2018-08-22T03:59:00.616Z,477.7
2018-08-22T04:00:00.478Z,539.7
2018-08-22T04:01:00.677Z,607.9
2018-08-22T04:02:00.475Z,682.7
2018-08-22T04:03:00.471Z,764.3
2018-08-22T04:04:00.507Z,853.3
2018-08-22T04:05:00.473Z,949.9
2018-08-22T04:06:00.622Z,1054.8
2018-08-22T04:07:00.488Z,1167.9
2018-08-22T04:08:00.471Z,1289.5
2018-08-22T04:09:00.518Z,1419.5
2018-08-22T04:10:00.474Z,1557.9
2018-08-22T04:11:00.621Z,1705.1
2018-08-22T04:12:00.475Z,1861.5
2018-08-22T04:13:00.473Z,2027.4
2018-08-22T04:14:00.504Z,2203.3
2018-08-22T04:15:00.476Z,2389.6
2018-08-22T04:16:00.687Z,2586.2
2018-08-22T04:17:00.474Z,2793.1
2018-08-22T04:18:00.500Z,3010.3
2018-08-22T04:19:00.445Z,3238.4
2018-08-22T04:20:00.475Z,3477.4
2018-08-22T04:21:00.679Z,3727.7
2018-08-22T04:22:00.479Z,3989.5
2018-08-22T04:23:00.505Z,4262.6
2018-08-22T04:24:00.477Z,4547.1
2018-08-22T04:25:00.483Z,4842.4
2018-08-22T04:26:00.623Z,5147.1
2018-08-22T04:27:00.481Z,5460.1
2018-08-22T04:28:00.638Z,5780.8
2018-08-22T04:29:00.451Z,6108.2
2018-08-22T04:30:00.482Z,6441.4
2018-08-22T04:31:00.695Z,6779.7
2018-08-22T04:32:00.479Z,7122.1
2018-08-22T04:33:00.509Z,7467.9
2018-08-22T04:34:00.481Z,7816.5
2018-08-22T04:35:00.481Z,8167.7
2018-08-22T04:36:00.629Z,8521.1
2018-08-22T04:37:00.482Z,8877.1
2018-08-22T04:38:00.508Z,9237.3
2018-08-22T04:39:00.488Z,9602.7
2018-08-22T04:40:00.496Z,9972.7
2018-08-22T04:41:00.621Z,10346.6
2018-08-22T04:42:00.481Z,10724.7
2018-08-22T04:43:00.516Z,11107.2
2018-08-22T04:44:00.488Z,11493.5
2018-08-22T04:45:00.483Z,11884.1
2018-08-22T04:46:00.753Z,12279.1
2018-08-22T04:47:00.483Z,12677.8
2018-08-22T04:48:00.517Z,13080.5
2018-08-22T04:49:00.457Z,13485.9
2018-08-22T04:50:00.488Z,13892.7
2018-08-22T04:51:00.640Z,14299.7
2018-08-22T04:52:00.485Z,14705.5
2018-08-22T04:53:00.517Z,15107.5
2018-08-22T04:54:00.488Z,15504.4
2018-08-22T04:55:00.494Z,15896.5
2018-08-22T04:56:00.635Z,16284.9
2018-08-22T04:57:00.516Z,16669.5
2018-08-22T04:58:00.489Z,17050.7
2018-08-22T04:59:00.494Z,17428.6
2018-08-22T05:00:00.492Z,17802.8
2018-08-22T05:01:00.760Z,18173.5
2018-08-22T05:02:00.517Z,18540.8
2018-08-22T05:03:00.492Z,18905.1
2018-08-22T05:04:00.517Z,19268.6
2018-08-22T05:05:00.489Z,19631.5
2018-08-22T05:06:00.649Z,19995.0
2018-08-22T05:07:00.526Z,20359.3
2018-08-22T05:08:00.494Z,20724.9
2018-08-22T05:09:00.492Z,21093.4
2018-08-22T05:10:00.492Z,21465.7
2018-08-22T05:11:00.696Z,21838.9
2018-08-22T05:12:00.526Z,22214.1
2018-08-22T05:13:00.495Z,22587.5
2018-08-22T05:14:00.493Z,22962.6
2018-08-22T05:15:00.492Z,23338.9
2018-08-22T05:16:00.638Z,23716.1
2018-08-22T05:17:00.533Z,24099.7
2018-08-22T05:18:00.501Z,24485.5
2018-08-22T05:19:00.496Z,24867.9
2018-08-22T05:20:00.504Z,25253.5
2018-08-22T05:21:00.635Z,25640.8
2018-08-22T05:22:00.530Z,26027.0
2018-08-22T05:23:00.501Z,26412.6
2018-08-22T05:24:00.498Z,26796.7
2018-08-22T05:25:00.497Z,27177.2
2018-08-22T05:26:00.638Z,27557.7
2018-08-22T05:27:00.533Z,27936.5
2018-08-22T05:28:00.505Z,28317.7
2018-08-22T05:29:00.495Z,28697.7
2018-08-22T05:30:00.538Z,29077.1
2018-08-22T05:31:00.639Z,29456.5
2018-08-22T05:32:00.535Z,29831.1
2018-08-22T05:33:00.503Z,30204.5
2018-08-22T05:34:00.499Z,30579.9
2018-08-22T05:35:00.498Z,30952.0
2018-08-22T05:36:00.640Z,31322.9
2018-08-22T05:37:00.537Z,31697.0
2018-08-22T05:38:00.509Z,32071.7
2018-08-22T05:39:00.498Z,32468.7
2018-08-22T05:40:00.478Z,32959.7
2018-08-22T05:41:00.640Z,33409.5
2018-08-22T05:42:00.532Z,33843.3
2018-08-22T05:43:00.505Z,34462.7
2018-08-22T05:44:00.503Z,35053.9
2018-08-22T05:45:00.473Z,35532.0
2018-08-22T05:46:00.669Z,35955.6
2018-08-22T05:47:00.537Z,36396.1
2018-08-22T05:48:00.507Z,36889.7
2018-08-22T05:49:00.507Z,37625.9
2018-08-22T05:50:00.504Z,38403.3
2018-08-22T05:51:00.642Z,38914.9
2018-08-22T05:52:00.539Z,39443.4
2018-08-22T05:53:00.504Z,40068.7
2018-08-22T05:54:00.502Z,40512.3
2018-08-22T05:55:00.504Z,40963.9
2018-08-22T05:56:00.709Z,41999.1
2018-08-22T05:57:00.540Z,43288.9
2018-08-22T05:58:00.501Z,43873.9
2018-08-22T05:59:00.500Z,44344.9
2018-08-22T06:00:00.516Z,45251.5
2018-08-22T06:01:00.642Z,46210.3
2018-08-22T06:02:00.537Z,47087.0
2018-08-22T06:03:00.501Z,48091.5
2018-08-22T06:04:00.504Z,48999.9
2018-08-22T06:05:00.508Z,49719.5
2018-08-22T06:06:00.648Z,50467.3
2018-08-22T06:07:00.545Z,51682.5
2018-08-22T06:08:00.503Z,53111.4
2018-08-22T06:09:00.504Z,54674.2
2018-08-22T06:10:00.514Z,56110.9
2018-08-22T06:11:00.650Z,56980.8
2018-08-22T06:12:00.552Z,57587.9
2018-08-22T06:13:00.504Z,58689.2
2018-08-22T06:14:00.509Z,59908.2
2018-08-22T06:15:00.504Z,60780.1
2018-08-22T06:16:00.719Z,61629.0
2018-08-22T06:17:00.542Z,62518.4
2018-08-22T06:18:00.505Z,63202.2
2018-08-22T06:19:00.504Z,63715.5
2018-08-22T06:20:00.515Z,64351.5
2018-08-22T06:21:00.721Z,65199.2
2018-08-22T06:22:00.553Z,65535.0
2018-08-22T06:30:00.722Z,65535.0
2018-08-22T06:45:00.769Z,65535.0
2018-08-22T07:00:00.721Z,65535.0
2018-08-22T07:15:00.730Z,65535.0
2018-08-22T07:30:00.752Z,65535.0
2018-08-22T07:45:00.728Z,65535.0
2018-08-22T08:00:00.751Z,65535.0
2018-08-22T08:15:00.695Z,65535.0
2018-08-22T08:30:00.751Z,65535.0
2018-08-22T08:45:00.718Z,65535.0
2018-08-22T09:00:00.811Z,65535.0
2018-08-22T09:15:00.693Z,65535.0
2018-08-22T09:30:00.782Z,65535.0
2018-08-22T09:45:00.789Z,65535.0
2018-08-22T10:00:00.921Z,65535.0
2018-08-22T10:15:00.709Z,65535.0
2018-08-22T10:30:00.897Z,65535.0
2018-08-22T10:45:00.752Z,65535.0
2018-08-22T11:00:00.842Z,65535.0
2018-08-22T11:15:00.738Z,65535.0
2018-08-22T11:30:01.047Z,65535.0
2018-08-22T11:45:00.819Z,65535.0
2018-08-22T12:00:00.860Z,65535.0
2018-08-22T12:15:01.059Z,65535.0
2018-08-22T12:30:00.801Z,65535.0
2018-08-22T12:45:00.952Z,65535.0
2018-08-22T13:00:00.862Z,65535.0
2018-08-22T13:15:00.871Z,65535.0
2018-08-22T13:30:00.871Z,65535.0
2018-08-22T13:45:00.865Z,65535.0
2018-08-22T14:00:00.897Z,65535.0
2018-08-22T14:15:05.912Z,65535.0
2018-08-22T14:30:00.830Z,65535.0
2018-08-22T14:45:00.936Z,65535.0
2018-08-22T15:00:00.964Z,65535.0
2018-08-22T15:15:00.965Z,65535.0
2018-08-22T15:30:00.985Z,65535.0
2018-08-22T15:45:00.872Z,65535.0
2018-08-22T16:00:00.918Z,65535.0
2018-08-22T16:13:00.654Z,65528.3
2018-08-22T16:15:05.794Z,65528.3
2018-08-22T16:28:00.654Z,65476.8
2018-08-22T16:29:00.657Z,65331.1
2018-08-22T16:30:00.827Z,65069.0
2018-08-22T16:31:00.725Z,64791.3
2018-08-22T16:32:00.655Z,64636.3
2018-08-22T16:33:00.660Z,64548.7
2018-08-22T16:34:00.657Z,64464.9
2018-08-22T16:35:00.859Z,64307.3
2018-08-22T16:36:00.662Z,63968.6
2018-08-22T16:37:00.657Z,63381.3
2018-08-22T16:38:00.658Z,62539.5
2018-08-22T16:39:00.658Z,61486.2
2018-08-22T16:40:00.839Z,60283.3
2018-08-22T16:41:00.656Z,59013.8
2018-08-22T16:42:00.655Z,57712.3
2018-08-22T16:43:00.661Z,56469.1
2018-08-22T16:44:00.658Z,55391.0
2018-08-22T16:45:00.932Z,54587.6
2018-08-22T16:46:00.656Z,53982.5
2018-08-22T16:47:00.631Z,53396.5
2018-08-22T16:48:00.657Z,52853.1
2018-08-22T16:49:00.656Z,52404.9
2018-08-22T16:50:05.805Z,52073.8
2018-08-22T16:51:00.659Z,51915.8
2018-08-22T16:52:00.658Z,51989.8
2018-08-22T16:53:00.657Z,52235.9
2018-08-22T16:54:00.659Z,52625.1
2018-08-22T16:55:05.813Z,53113.6
2018-08-22T16:56:00.657Z,53586.0
2018-08-22T16:57:00.660Z,53962.9
2018-08-22T16:58:00.659Z,54237.9
2018-08-22T16:59:00.656Z,54373.2
2018-08-22T17:00:05.804Z,54277.9
2018-08-22T17:01:00.707Z,53881.1
2018-08-22T17:02:00.759Z,53197.7
2018-08-22T17:03:00.660Z,52246.8
2018-08-22T17:04:00.666Z,51048.8
2018-08-22T17:05:00.807Z,49683.9
2018-08-22T17:06:00.693Z,48228.1
2018-08-22T17:07:00.662Z,46699.2
2018-08-22T17:08:00.659Z,45160.8
2018-08-22T17:09:00.658Z,43611.1
2018-08-22T17:10:00.806Z,42053.0
2018-08-22T17:11:00.707Z,40521.7
2018-08-22T17:12:00.659Z,39054.4
2018-08-22T17:13:00.660Z,37616.8
2018-08-22T17:14:00.633Z,36172.6
2018-08-22T17:15:00.868Z,34742.4
2018-08-22T17:16:00.695Z,33388.3
2018-08-22T17:17:00.663Z,32143.1
2018-08-22T17:18:00.662Z,31021.2
2018-08-22T17:19:00.681Z,30019.9
2018-08-22T17:20:00.806Z,29120.8
2018-08-22T17:21:00.696Z,28308.4
2018-08-22T17:22:00.670Z,27572.1
2018-08-22T17:23:00.662Z,26902.9
2018-08-22T17:24:00.702Z,26280.1
2018-08-22T17:25:02.924Z,25686.8
2018-08-22T17:26:00.691Z,25128.9
2018-08-22T17:27:00.667Z,24614.9
2018-08-22T17:28:00.664Z,24147.5
2018-08-22T17:29:00.664Z,23718.7
2018-08-22T17:30:00.804Z,23320.9
2018-08-22T17:31:00.693Z,22942.6
2018-08-22T17:32:00.666Z,22577.9
2018-08-22T17:33:00.664Z,22225.9
2018-08-22T17:34:00.686Z,21882.8
2018-08-22T17:35:00.823Z,21547.1
2018-08-22T17:36:00.690Z,21210.1
2018-08-22T17:37:00.668Z,20871.5
2018-08-22T17:38:00.669Z,20544.1
2018-08-22T17:39:00.673Z,20236.3
2018-08-22T17:40:00.805Z,19943.2
2018-08-22T17:41:00.692Z,19652.0
2018-08-22T17:42:00.667Z,19357.0
2018-08-22T17:43:00.668Z,19065.1
2018-08-22T17:44:00.673Z,18779.4
2018-08-22T17:45:00.854Z,18495.5
2018-08-22T17:46:00.696Z,18207.7
2018-08-22T17:47:00.675Z,17915.6
2018-08-22T17:48:00.671Z,17619.5
2018-08-22T17:49:00.666Z,17316.7
2018-08-22T17:50:00.835Z,17004.4
2018-08-22T17:51:00.641Z,16683.8
2018-08-22T17:52:00.667Z,16357.3
2018-08-22T17:53:00.668Z,16024.3
2018-08-22T17:54:00.639Z,15685.4
2018-08-22T17:55:00.915Z,15343.1
2018-08-22T17:56:00.667Z,15003.6
2018-08-22T17:57:00.672Z,14672.7
2018-08-22T17:58:00.669Z,14349.7
2018-08-22T17:59:00.677Z,14036.1
2018-08-22T18:00:00.874Z,13734.3
2018-08-22T18:01:00.675Z,13446.5
2018-08-22T18:02:00.672Z,13170.2
2018-08-22T18:03:00.671Z,12900.7
2018-08-22T18:04:00.676Z,12636.1
2018-08-22T18:05:01.008Z,12385.2
2018-08-22T18:06:00.671Z,12135.9
2018-08-22T18:07:00.672Z,11886.5
2018-08-22T18:08:00.675Z,11634.3
2018-08-22T18:09:00.675Z,11377.3
2018-08-22T18:10:00.879Z,11114.2
2018-08-22T18:11:00.681Z,10844.1
2018-08-22T18:12:00.686Z,10567.3
2018-08-22T18:13:00.671Z,10284.9
2018-08-22T18:14:00.844Z,9996.8
2018-08-22T18:15:00.817Z,9702.1
2018-08-22T18:16:00.684Z,9399.9
2018-08-22T18:17:00.675Z,9091.7
2018-08-22T18:18:00.652Z,8780.8
2018-08-22T18:19:00.678Z,8469.7
2018-08-22T18:20:00.920Z,8148.8
2018-08-22T18:21:00.678Z,7827.9
2018-08-22T18:22:00.677Z,7508.7
2018-08-22T18:23:00.675Z,7193.5
2018-08-22T18:24:00.686Z,6883.3
2018-08-22T18:25:00.817Z,6578.4
2018-08-22T18:26:00.653Z,6278.9
2018-08-22T18:27:00.673Z,5984.6
2018-08-22T18:28:00.650Z,5694.3
2018-08-22T18:29:00.675Z,5408.3
2018-08-22T18:30:00.884Z,5127.5
2018-08-22T18:31:00.684Z,4852.5
2018-08-22T18:32:00.686Z,4583.8
2018-08-22T18:33:00.675Z,4323.1
2018-08-22T18:34:00.698Z,4070.8
2018-08-22T18:35:00.947Z,3827.1
2018-08-22T18:36:00.680Z,3591.9
2018-08-22T18:37:00.678Z,3364.9
2018-08-22T18:38:00.653Z,3146.7
2018-08-22T18:39:00.694Z,2938.1
2018-08-22T18:40:00.855Z,2739.8
2018-08-22T18:41:00.691Z,2550.7
2018-08-22T18:42:00.682Z,2370.2
2018-08-22T18:43:00.685Z,2198.9
2018-08-22T18:44:00.682Z,2036.4
2018-08-22T18:45:00.951Z,1882.5
2018-08-22T18:46:00.687Z,1737.3
2018-08-22T18:47:00.684Z,1601.1
2018-08-22T18:48:00.688Z,1472.9
2018-08-22T18:49:00.730Z,1351.7
2018-08-22T18:50:00.823Z,1237.3
2018-08-22T18:51:00.690Z,1130.7
2018-08-22T18:52:00.684Z,1031.7
2018-08-22T18:53:00.687Z,939.8
2018-08-22T18:54:00.728Z,854.1
2018-08-22T18:55:00.827Z,774.3
2018-08-22T18:56:00.686Z,700.2
2018-08-22T18:57:00.684Z,631.4
2018-08-22T18:58:00.691Z,567.5
2018-08-22T18:59:00.716Z,508.6
2018-08-22T19:00:00.957Z,454.5
2018-08-22T19:01:00.692Z,405.1
2018-08-22T19:02:00.688Z,360.3
2018-08-22T19:03:00.691Z,319.7
2018-08-22T19:04:00.726Z,283.1
2018-08-22T19:05:00.966Z,249.9
2018-08-22T19:20:01.245Z,8.0
2018-08-22T19:21:00.971Z,7.5
2018-08-22T19:22:00.968Z,7.0
2018-08-22T19:23:00.969Z,6.5
2018-08-22T19:24:00.973Z,6.0
2018-08-22T19:25:01.337Z,5.7
2018-08-22T19:26:00.970Z,5.3
2018-08-22T19:27:01.015Z,5.0
2018-08-22T19:28:00.944Z,4.7
2018-08-22T19:29:00.970Z,4.4
2018-08-22T19:30:01.173Z,4.2
2018-08-22T19:31:00.975Z,4.0
2018-08-22T19:32:01.009Z,3.8
2018-08-22T19:33:00.977Z,3.6
2018-08-22T19:34:00.970Z,3.4
2018-08-22T19:35:01.256Z,2.9
2018-08-22T19:36:01.071Z,2.5
2018-08-22T19:37:01.000Z,2.2
2018-08-22T19:38:00.988Z,1.9
2018-08-22T19:39:00.981Z,1.7
2018-08-22T19:40:01.239Z,1.5
2018-08-22T19:41:01.001Z,1.3
2018-08-22T19:42:00.977Z,1.1
2018-08-22T19:43:00.980Z,1.0
2018-08-22T19:44:00.976Z,0.9
2018-08-22T19:45:01.291Z,0.7
2018-08-22T19:46:01.117Z,0.6
2018-08-22T19:47:00.976Z,0.5
2018-08-22T19:49:01.076Z,0.4
2018-08-22T19:50:01.179Z,0.3
2018-08-22T19:52:00.981Z,0.2
2018-08-22T19:53:00.980Z,0.1
